Time;durP1;ratioP1;P1;durP2;ratioP2;P2;SDS_P1;SDS_P2;PMS_P1;PMS_P2;Temp;Humidity;BMP_temperature;BMP_pressure;BME280_temperature;BME280_humidity;BME280_pressure;Samples;Min_cycle;Max_cycle;Signal;HPM_P1;HPM_P2
2022/05/21 00:02:54;;;;;;;6.75;1.92;;;16.70;91.00;;;;;;10538471;28;20441;-60
2022/05/21 00:07:55;;;;;;;3.78;1.60;;;16.70;91.00;;;;;;10538204;28;20123;-60
2022/05/21 00:12:57;;;;;;;3.92;2.20;;;16.70;91.00;;;;;;10537928;28;20180;-59
2022/05/21 00:17:58;;;;;;;5.53;2.10;;;16.60;90.90;;;;;;10537839;28;20055;-59
2022/05/21 00:23:07;;;;;;;4.47;2.28;;;16.60;90.90;;;;;;10537386;28;20097;-59
2022/05/21 00:28:08;;;;;;;5.85;2.20;;;16.60;90.90;;;;;;10537095;28;20120;-59
2022/05/21 00:33:09;;;;;;;5.00;2.33;;;16.60;90.90;;;;;;10536288;28;20437;-60
2022/05/21 00:38:10;;;;;;;5.28;2.30;;;16.60;90.90;;;;;;10537032;28;20134;-60
2022/05/21 00:43:32;;;;;;;3.83;2.30;;;16.60;91.20;;;;;;10536923;28;20035;-58
2022/05/21 00:48:35;;;;;;;6.18;2.90;;;16.50;90.90;;;;;;10518703;28;20032;-59
2022/05/21 00:53:36;;;;;;;5.38;3.00;;;16.50;90.90;;;;;;10536301;28;20507;-62
2022/05/21 01:03:58;;;;;;;7.18;2.63;;;16.50;90.90;;;;;;10536259;28;20115;-60
2022/05/21 01:08:58;;;;;;;7.65;3.40;;;16.50;90.90;;;;;;10536499;28;20545;-60
2022/05/21 01:13:59;;;;;;;7.30;3.13;;;16.50;91.00;;;;;;10535706;28;20193;-59
2022/05/21 01:19:08;;;;;;;9.32;3.08;;;16.40;90.90;;;;;;10536139;28;20036;-60
2022/05/21 01:24:09;;;;;;;;;;;16.50;91.00;;;;;;10536244;28;20442;-59
2022/05/21 01:29:19;;;;;;;6.30;3.00;;;16.40;91.00;;;;;;10535437;28;19916;-60
2022/05/21 01:34:21;;;;;;;5.47;3.10;;;16.40;90.90;;;;;;10535543;28;20074;-62
2022/05/21 01:39:21;;;;;;;5.00;3.30;;;16.40;90.90;;;;;;10535440;28;20040;-60
2022/05/21 01:44:37;;;;;;;5.93;3.20;;;16.40;91.00;;;;;;10538657;28;20059;-59
2022/05/21 01:49:40;;;;;;;7.18;2.83;;;16.40;91.00;;;;;;10543534;28;20085;-61
2022/05/21 01:54:41;;;;;;;9.20;3.22;;;16.40;91.00;;;;;;10543496;28;20033;-63
2022/05/21 01:59:41;;;;;;;5.18;3.35;;;16.40;91.00;;;;;;10543350;28;20032;-60
2022/05/21 02:04:42;;;;;;;6.72;3.45;;;16.40;91.00;;;;;;10543144;28;20472;-59
2022/05/21 02:09:43;;;;;;;8.32;3.50;;;16.40;91.00;;;;;;10542847;28;20032;-60
2022/05/21 02:14:44;;;;;;;4.70;3.38;;;16.30;91.00;;;;;;10542484;28;20044;-60
2022/05/21 02:19:45;;;;;;;5.50;3.50;;;16.30;91.10;;;;;;10542524;28;20115;-59
2022/05/21 02:24:47;;;;;;;7.65;4.28;;;16.30;91.10;;;;;;10542250;28;20459;-61
2022/05/21 02:29:48;;;;;;;8.63;3.92;;;16.30;91.10;;;;;;10541950;28;20075;-61
2022/05/21 02:34:48;;;;;;;6.20;3.67;;;16.30;91.10;;;;;;10541886;28;20093;-59
2022/05/21 02:39:50;;;;;;;7.45;3.33;;;16.30;91.10;;;;;;10541845;28;20028;-60
2022/05/21 02:44:50;;;;;;;7.78;3.47;;;16.30;91.10;;;;;;10541582;28;20032;-59
2022/05/21 02:49:51;;;;;;;5.63;3.55;;;16.30;91.10;;;;;;10541063;28;20036;-61
2022/05/21 02:54:52;;;;;;;7.68;4.13;;;16.30;91.40;;;;;;10539356;28;20040;-60
2022/05/21 02:59:53;;;;;;;5.50;3.25;;;16.30;91.20;;;;;;10540912;28;20403;-59
2022/05/21 03:04:54;;;;;;;5.80;3.60;;;16.30;91.20;;;;;;10541157;28;20090;-58
2022/05/21 03:15:14;;;;;;;6.68;3.35;;;16.30;91.20;;;;;;10540237;28;20044;-60
2022/05/21 03:20:19;;;;;;;7.65;3.17;;;16.30;91.30;;;;;;10539987;28;20032;-63
2022/05/21 03:25:20;;;;;;;4.97;2.67;;;16.20;91.30;;;;;;10539761;28;20118;-64
2022/05/21 03:30:24;;;;;;;7.03;2.60;;;16.20;91.20;;;;;;10539421;28;20570;-60
2022/05/21 03:35:25;;;;;;;5.05;2.38;;;16.20;91.50;;;;;;10539300;28;20411;-60
2022/05/21 03:40:30;;;;;;;6.63;2.35;;;16.20;91.30;;;;;;10539337;28;20539;-61
2022/05/21 03:45:31;;;;;;;5.82;2.72;;;16.20;91.30;;;;;;10538945;28;20032;-63
2022/05/21 03:50:32;;;;;;;4.47;2.03;;;16.20;91.30;;;;;;10538818;28;20055;-59
2022/05/21 03:55:33;;;;;;;13.30;3.95;;;16.20;91.30;;;;;;10538845;28;20044;-63
2022/05/21 04:00:33;;;;;;;5.25;2.10;;;16.20;91.40;;;;;;10538399;28;20051;-61
2022/05/21 04:05:34;;;;;;;4.63;1.88;;;16.20;91.40;;;;;;10538301;28;20052;-60
2022/05/21 04:10:35;;;;;;;5.75;1.90;;;16.20;91.40;;;;;;10536869;28;20059;-59
2022/05/21 04:15:36;;;;;;;3.63;1.65;;;16.20;91.40;;;;;;10537759;28;20046;-59
2022/05/21 04:20:37;;;;;;;8.15;2.45;;;16.20;91.40;;;;;;10537600;28;20392;-60
2022/05/21 04:25:38;;;;;;;4.95;1.77;;;16.20;91.40;;;;;;10537368;28;20036;-59
2022/05/21 04:30:39;;;;;;;5.20;1.50;;;16.20;91.40;;;;;;10537224;28;20162;-60
2022/05/21 04:40:58;;;;;;;4.70;1.60;;;16.30;91.40;;;;;;10537108;28;20028;-59
2022/05/21 04:45:59;;;;;;;5.72;1.58;;;16.30;91.40;;;;;;10536994;28;20032;-59
2022/05/21 04:51:02;;;;;;;6.80;1.40;;;16.30;91.40;;;;;;10536628;28;20119;-59
2022/05/21 04:56:04;;;;;;;8.13;1.95;;;16.30;91.40;;;;;;10536627;28;20100;-59
2022/05/21 05:01:05;;;;;;;3.22;2.08;;;16.30;91.40;;;;;;10536188;28;20508;-59
2022/05/21 05:06:06;;;;;;;6.05;1.58;;;16.30;91.30;;;;;;10536292;28;20043;-61
2022/05/21 05:11:07;;;;;;;6.78;1.42;;;16.30;91.30;;;;;;10536075;28;20453;-60
2022/05/21 05:16:07;;;;;;;3.75;1.27;;;16.30;91.30;;;;;;10535801;28;20044;-60
2022/05/21 05:21:08;;;;;;;6.60;2.15;;;16.30;91.30;;;;;;10546612;28;20136;-59
2022/05/21 05:26:09;;;;;;;6.30;2.30;;;16.40;91.30;;;;;;10549596;28;20052;-60
2022/05/21 05:31:10;;;;;;;7.07;1.38;;;16.40;91.20;;;;;;10549736;28;20052;-60
2022/05/21 05:36:10;;;;;;;5.38;1.15;;;16.40;91.20;;;;;;10549572;28;20093;-62
2022/05/21 05:41:11;;;;;;;3.50;1.10;;;16.40;91.20;;;;;;10549703;28;20058;-61
2022/05/21 05:46:12;;;;;;;4.40;1.17;;;16.40;91.20;;;;;;10549558;28;20510;-62
2022/05/21 05:51:13;;;;;;;4.03;1.10;;;16.40;91.10;;;;;;10549168;28;20028;-59
2022/05/21 05:56:14;;;;;;;5.75;1.60;;;16.40;91.10;;;;;;10549288;28;20048;-59
2022/05/21 06:01:15;;;;;;;4.18;1.23;;;16.40;91.10;;;;;;10549826;28;20115;-60
2022/05/21 06:06:16;;;;;;;3.30;1.13;;;16.50;91.10;;;;;;10549178;28;20190;-60
2022/05/21 06:11:17;;;;;;;4.82;1.23;;;16.40;91.00;;;;;;10548413;28;20120;-60
2022/05/21 06:16:18;;;;;;;3.95;1.00;;;16.50;91.00;;;;;;10548583;28;20036;-59
2022/05/21 06:21:19;;;;;;;3.33;1.25;;;16.50;91.00;;;;;;10548858;28;20036;-63
2022/05/21 06:26:19;;;;;;;6.65;1.42;;;16.50;91.00;;;;;;10548833;28;20090;-59
2022/05/21 06:31:20;;;;;;;3.53;1.40;;;16.50;91.00;;;;;;10544122;28;20089;-58
2022/05/21 06:36:22;;;;;;;2.35;1.00;;;16.50;90.90;;;;;;10541661;28;20138;-60
2022/05/21 06:41:23;;;;;;;4.05;1.50;;;16.50;90.90;;;;;;10541734;28;20111;-62
2022/05/21 06:46:24;;;;;;;4.57;1.30;;;16.60;90.90;;;;;;10541441;28;20181;-59
2022/05/21 06:51:25;;;;;;;3.75;1.25;;;16.60;90.80;;;;;;10541362;28;20124;-60
2022/05/21 06:56:25;;;;;;;2.90;1.30;;;16.60;90.80;;;;;;10541111;28;20048;-59
2022/05/21 07:01:26;;;;;;;6.53;1.52;;;16.60;90.80;;;;;;10540719;28;20075;-62
2022/05/21 07:11:47;;;;;;;2.08;1.10;;;16.60;90.70;;;;;;10540457;28;20063;-60
2022/05/21 07:16:49;;;;;;;4.57;1.30;;;16.70;90.70;;;;;;10539978;28;20528;-66
2022/05/21 07:21:50;;;;;;;3.33;1.42;;;16.70;90.70;;;;;;10540093;28;20052;-67
2022/05/21 07:26:51;;;;;;;5.22;1.70;;;16.70;90.60;;;;;;10539586;28;20047;-59
2022/05/21 07:31:51;;;;;;;4.05;1.40;;;16.70;90.60;;;;;;10521592;28;20537;-62
2022/05/21 07:36:52;;;;;;;3.97;1.40;;;16.80;90.60;;;;;;10539240;28;20075;-60
2022/05/21 07:41:52;;;;;;;3.08;1.30;;;16.80;90.60;;;;;;10538345;28;20028;-62
2022/05/21 07:46:53;;;;;;;3.45;1.27;;;16.80;90.60;;;;;;10538971;28;20118;-59
2022/05/21 07:51:56;;;;;;;3.97;1.02;;;16.80;90.60;;;;;;10538459;28;20126;-63
2022/05/21 07:56:57;;;;;;;3.03;1.02;;;16.80;90.50;;;;;;10538718;28;20051;-63
2022/05/21 08:01:58;;;;;;;4.32;1.35;;;16.90;90.50;;;;;;10538572;28;20403;-63
2022/05/21 08:06:59;;;;;;;3.90;1.38;;;16.90;90.50;;;;;;10537971;28;20064;-63
2022/05/21 08:11:59;;;;;;;6.20;1.08;;;16.90;90.40;;;;;;10538129;28;20050;-59
2022/05/21 08:17:00;;;;;;;2.13;0.90;;;16.90;90.40;;;;;;10537581;28;20048;-60
2022/05/21 08:27:22;;;;;;;3.75;0.95;;;17.00;90.40;;;;;;10495566;28;20649;-59
2022/05/21 08:32:23;;;;;;;3.80;1.08;;;17.00;90.30;;;;;;10537027;28;20511;-61
2022/05/21 08:37:24;;;;;;;2.55;0.93;;;17.00;90.60;;;;;;10536930;28;20044;-64
2022/05/21 08:42:38;;;;;;;4.85;1.40;;;17.00;90.30;;;;;;10536835;28;20028;-60
2022/05/21 08:47:39;;;;;;;7.50;2.38;;;17.10;90.20;;;;;;10536854;28;20048;-63
2022/05/21 08:52:49;;;;;;;3.08;1.30;;;17.10;90.30;;;;;;10536074;28;20077;-64
2022/05/21 08:57:59;;;;;;;5.45;1.10;;;17.20;90.30;;;;;;10536990;28;20495;-62
2022/05/21 09:03:00;;;;;;;5.13;1.30;;;17.10;90.20;;;;;;10536701;28;20109;-60
2022/05/21 09:08:20;;;;;;;5.35;1.20;;;17.00;90.20;;;;;;10535416;28;20393;-62
2022/05/21 09:13:46;;;;;;;7.38;1.50;;;17.10;90.00;;;;;;10535801;28;20140;-64
2022/05/21 09:18:49;;;;;;;4.38;1.30;;;17.20;90.10;;;;;;10535265;28;20090;-61
2022/05/21 09:23:57;;;;;;;6.47;1.42;;;17.20;90.00;;;;;;10535667;28;20398;-65
2022/05/21 09:29:13;;;;;;;;;;;17.20;89.60;;;;;;10536228;28;20051;-61
2022/05/21 09:34:26;;;;;;;8.70;1.55;;;17.30;88.90;;;;;;10535557;28;20357;-60
2022/05/21 09:39:32;;;;;;;8.77;1.50;;;17.40;89.30;;;;;;10535702;28;20040;-70
2022/05/21 09:50:21;;;;;;;8.45;1.33;;;17.50;88.90;;;;;;10535386;28;20114;-62
2022/05/21 09:55:28;;;;;;;7.03;1.60;;;17.60;88.40;;;;;;10534353;28;20403;-65
2022/05/21 10:00:34;;;;;;;5.00;1.25;;;17.60;88.60;;;;;;10535082;28;20400;-69
2022/05/21 10:05:49;;;;;;;6.65;1.27;;;17.70;88.30;;;;;;10536748;28;20035;-61
2022/05/21 10:11:06;;;;;;;4.45;1.48;;;17.60;88.30;;;;;;10542746;28;20035;-73
2022/05/21 10:16:28;;;;;;;7.15;1.63;;;17.70;88.40;;;;;;10524470;28;20101;-60
2022/05/21 10:22:01;;;;;;;11.18;1.55;;;17.90;88.10;;;;;;10542721;28;20533;-65
2022/05/21 10:27:16;;;;;;;6.82;1.60;;;18.00;87.00;;;;;;10532544;28;20044;-61
2022/05/21 10:32:38;;;;;;;8.27;1.70;;;17.90;87.80;;;;;;10541878;28;20173;-60
2022/05/21 10:37:44;;;;;;;4.03;1.15;;;17.90;86.80;;;;;;10541857;28;20572;-64
2022/05/21 10:42:48;;;;;;;4.05;1.15;;;17.80;87.60;;;;;;10541392;28;20526;-78
2022/05/21 10:48:07;;;;;;;4.88;1.23;;;17.80;88.20;;;;;;10541274;28;20663;-61
2022/05/21 10:53:44;;;;;;;2.72;1.13;;;17.90;87.20;;;;;;10541310;28;20036;-61
2022/05/21 10:58:52;;;;;;;4.00;0.90;;;18.10;86.20;;;;;;10530800;28;20463;-61
2022/05/21 11:04:14;;;;;;;6.60;1.23;;;18.10;86.50;;;;;;10540910;28;20485;-61
2022/05/21 11:09:35;;;;;;;4.95;1.10;;;18.20;85.20;;;;;;10540625;28;20032;-61
2022/05/21 11:14:42;;;;;;;2.67;1.02;;;18.30;85.00;;;;;;10540259;28;20097;-62
2022/05/21 11:19:54;;;;;;;9.10;1.58;;;18.40;84.60;;;;;;10539729;28;20416;-73
2022/05/21 11:25:27;;;;;;;3.10;1.15;;;18.40;84.60;;;;;;10521530;28;20032;-61
2022/05/21 11:30:28;;;;;;;6.25;1.27;;;18.40;83.30;;;;;;10539449;28;20047;-76
2022/05/21 11:46:37;;;;;;;9.25;1.80;;;18.30;85.10;;;;;;10539355;28;20037;-61
2022/05/21 11:51:37;;;;;;;5.20;1.40;;;18.30;85.50;;;;;;10538722;28;20024;-62
2022/05/21 11:57:03;;;;;;;6.70;1.40;;;18.40;85.80;;;;;;10538406;28;20424;-62
2022/05/21 12:02:18;;;;;;;4.65;1.33;;;18.40;85.00;;;;;;10538122;28;20051;-63
2022/05/21 12:07:41;;;;;;;7.43;1.27;;;18.40;84.90;;;;;;10538139;28;20032;-61
2022/05/21 12:13:06;;;;;;;6.10;1.33;;;18.50;84.90;;;;;;10537688;28;20034;-63
2022/05/21 12:18:58;;;;;;;5.18;1.98;;;18.30;84.10;;;;;;10537205;28;20097;-63
2022/05/21 12:24:07;;;;;;;3.92;1.65;;;18.70;83.70;;;;;;10503256;28;20127;-62
2022/05/21 12:29:16;;;;;;;;;;;19.00;84.00;;;;;;10536650;28;20108;-61
2022/05/21 12:34:23;;;;;;;4.20;1.38;;;18.90;83.30;;;;;;10519284;28;19918;-63
2022/05/21 12:39:41;;;;;;;5.10;1.50;;;19.10;83.80;;;;;;10536972;28;20043;-62
2022/05/21 12:44:45;;;;;;;8.27;1.90;;;19.00;83.30;;;;;;10536747;28;20028;-62
2022/05/21 12:49:50;;;;;;;5.00;1.90;;;18.90;83.80;;;;;;10536409;28;20027;-61
2022/05/21 12:55:14;;;;;;;8.30;1.92;;;18.90;84.40;;;;;;10536258;28;20052;-70
2022/05/21 13:00:18;;;;;;;5.50;1.40;;;18.80;83.60;;;;;;10536176;28;20042;-61
2022/05/21 13:05:20;;;;;;;8.18;1.65;;;18.80;84.40;;;;;;10536113;28;20040;-61
2022/05/21 13:10:48;;;;;;;6.20;1.92;;;19.10;83.70;;;;;;10535659;28;20025;-61
2022/05/21 13:15:59;;;;;;;;;;;19.50;82.90;;;;;;10536235;28;20135;-61
2022/05/21 13:21:33;;;;;;;7.47;2.22;;;19.50;82.00;;;;;;10535699;28;19943;-66
2022/05/21 13:26:38;;;;;;;8.70;1.67;;;19.20;82.00;;;;;;10535445;28;20175;-63
2022/05/21 13:31:39;;;;;;;6.30;1.23;;;19.30;82.90;;;;;;10535297;28;20044;-73
2022/05/21 13:36:40;;;;;;;12.73;2.08;;;19.30;82.70;;;;;;10535421;28;20048;-64
2022/05/21 13:41:42;;;;;;;5.22;1.70;;;19.20;83.00;;;;;;10540943;28;20123;-60
2022/05/21 13:46:50;;;;;;;4.00;1.33;;;19.10;83.00;;;;;;10543221;28;20481;-71
2022/05/21 13:51:51;;;;;;;3.70;1.07;;;19.20;82.60;;;;;;10543963;28;20036;-60
2022/05/21 13:57:05;;;;;;;5.93;1.60;;;19.20;82.50;;;;;;10543361;28;20035;-61
2022/05/21 14:02:20;;;;;;;5.68;1.40;;;19.10;82.50;;;;;;10543366;28;20028;-63
2022/05/21 14:07:30;;;;;;;6.15;1.08;;;19.10;82.30;;;;;;10542721;28;20048;-62
2022/05/21 14:12:32;;;;;;;7.50;1.63;;;19.40;82.10;;;;;;10542768;28;20028;-65
2022/05/21 14:17:36;;;;;;;8.32;2.30;;;19.20;82.00;;;;;;10542669;28;20107;-63
2022/05/21 14:22:38;;;;;;;10.55;1.90;;;19.10;82.60;;;;;;10524404;28;20463;-66
2022/05/21 14:27:58;;;;;;;4.70;1.58;;;19.00;82.90;;;;;;10541221;28;20447;-64
2022/05/21 14:33:16;;;;;;;3.47;1.23;;;18.80;81.90;;;;;;10542240;28;20038;-66
2022/05/21 14:38:19;;;;;;;5.47;1.67;;;18.70;82.80;;;;;;10542012;28;20044;-66
2022/05/21 14:43:41;;;;;;;4.97;1.55;;;18.60;83.30;;;;;;10541349;28;20055;-63
2022/05/21 14:48:42;;;;;;;5.65;1.45;;;18.60;83.00;;;;;;10540839;28;20028;-63
2022/05/21 14:53:46;;;;;;;10.77;1.52;;;18.60;83.30;;;;;;10539784;28;20076;-61
2022/05/21 14:58:47;;;;;;;5.85;1.48;;;18.50;83.30;;;;;;10540552;28;20083;-63
2022/05/21 15:03:48;;;;;;;11.90;1.75;;;18.40;83.40;;;;;;10522497;28;20036;-62
2022/05/21 15:08:51;;;;;;;5.18;2.13;;;18.40;83.50;;;;;;10540394;28;20119;-61
2022/05/21 15:13:52;;;;;;;4.85;1.50;;;18.40;83.50;;;;;;10539886;28;20463;-60
2022/05/21 15:18:53;;;;;;;6.30;1.90;;;18.70;83.40;;;;;;10538698;28;20036;-63
2022/05/21 15:23:56;;;;;;;6.20;2.10;;;19.00;82.70;;;;;;10539074;28;20036;-60
2022/05/21 15:28:56;;;;;;;6.63;1.30;;;19.10;82.20;;;;;;10535103;28;20088;-61
2022/05/21 15:33:57;;;;;;;6.13;1.58;;;19.10;82.00;;;;;;10539007;28;20047;-62
2022/05/21 15:38:58;;;;;;;8.43;2.70;;;19.00;82.10;;;;;;10539036;28;20417;-64
2022/05/21 15:43:59;;;;;;;4.63;1.45;;;18.80;82.50;;;;;;10538962;28;20580;-61
2022/05/21 15:49:00;;;;;;;8.63;1.88;;;18.60;82.70;;;;;;10538619;28;20521;-61
2022/05/21 15:54:00;;;;;;;8.80;1.60;;;18.50;82.70;;;;;;10538160;28;20048;-62
2022/05/21 15:59:01;;;;;;;9.90;2.22;;;18.40;82.70;;;;;;10537886;28;20040;-60
2022/05/21 16:04:02;;;;;;;6.60;1.90;;;18.50;82.60;;;;;;10537766;28;20040;-60
2022/05/21 16:09:04;;;;;;;7.13;1.70;;;18.40;82.60;;;;;;10537834;28;20476;-62
2022/05/21 16:14:05;;;;;;;7.53;2.35;;;18.30;82.70;;;;;;10538067;28;20035;-65
2022/05/21 16:19:06;;;;;;;5.70;1.63;;;18.20;82.80;;;;;;10538175;28;20044;-58
2022/05/21 16:24:07;;;;;;;4.95;1.65;;;18.30;82.80;;;;;;10537701;28;20036;-57
2022/05/21 16:29:08;;;;;;;7.72;1.63;;;18.20;82.80;;;;;;10537373;28;20055;-68
2022/05/21 16:34:08;;;;;;;6.18;1.90;;;18.20;82.70;;;;;;10537680;28;20048;-57
2022/05/21 16:39:09;;;;;;;8.40;1.90;;;18.20;82.60;;;;;;10537225;28;20060;-58
2022/05/21 16:44:10;;;;;;;7.28;1.38;;;18.10;82.60;;;;;;10537327;28;20034;-57
2022/05/21 16:49:11;;;;;;;7.10;1.52;;;18.00;82.70;;;;;;10536255;28;20036;-70
2022/05/21 16:54:12;;;;;;;5.53;1.67;;;18.00;82.60;;;;;;10536686;28;20110;-66
2022/05/21 16:59:13;;;;;;;8.70;1.70;;;18.00;82.50;;;;;;10536537;28;20042;-64
2022/05/21 17:04:15;;;;;;;8.15;2.03;;;18.00;82.50;;;;;;10535875;28;20032;-68
2022/05/21 17:09:16;;;;;;;5.60;1.75;;;18.00;82.80;;;;;;10536176;28;20028;-64
2022/05/21 17:14:18;;;;;;;2.92;1.40;;;18.00;82.40;;;;;;10535988;28;20044;-56
2022/05/21 17:19:18;;;;;;;3.83;0.95;;;18.00;82.40;;;;;;10517874;28;20060;-56
2022/05/21 17:24:19;;;;;;;4.30;1.20;;;18.10;82.20;;;;;;10536091;28;20051;-60
2022/05/21 17:34:40;;;;;;;4.25;1.80;;;18.30;83.20;;;;;;10535635;28;20048;-59
2022/05/21 17:39:40;;;;;;;4.15;1.20;;;18.30;82.60;;;;;;10535614;28;20119;-57
2022/05/21 17:44:41;;;;;;;5.15;1.20;;;18.40;82.90;;;;;;10535576;28;20060;-56
2022/05/21 17:49:42;;;;;;;3.03;1.15;;;18.40;83.60;;;;;;10535525;28;20059;-55
2022/05/21 17:54:42;;;;;;;7.05;1.38;;;18.40;83.00;;;;;;10535073;28;20578;-56
2022/05/21 17:59:43;;;;;;;7.93;1.35;;;18.40;83.10;;;;;;10535460;28;20116;-56
2022/05/21 18:04:43;;;;;;;7.15;1.33;;;18.40;83.90;;;;;;10534973;28;20124;-56
2022/05/21 18:09:46;;;;;;;5.53;1.55;;;18.40;83.40;;;;;;10534860;28;20416;-59
2022/05/21 18:14:46;;;;;;;7.25;1.75;;;18.30;83.50;;;;;;10534913;28;20048;-66
2022/05/21 18:19:47;;;;;;;3.03;1.30;;;18.30;83.60;;;;;;10534486;28;20497;-59
2022/05/21 18:24:48;;;;;;;3.60;1.40;;;18.30;83.70;;;;;;10534748;28;20024;-57
2022/05/21 18:29:48;;;;;;;3.53;1.50;;;18.30;83.70;;;;;;10541023;28;20052;-56
2022/05/21 18:34:52;;;;;;;3.58;1.17;;;18.30;83.80;;;;;;10542058;28;20048;-68
2022/05/21 18:39:53;;;;;;;4.22;1.30;;;18.30;83.90;;;;;;10541768;28;20546;-57
2022/05/21 18:44:55;;;;;;;5.35;1.20;;;18.30;84.00;;;;;;10541797;28;20170;-56
2022/05/21 18:49:56;;;;;;;4.10;1.23;;;18.20;84.00;;;;;;10541608;28;20032;-57
2022/05/21 18:54:57;;;;;;;4.53;1.27;;;18.20;84.00;;;;;;10541340;28;20040;-56
2022/05/21 18:59:57;;;;;;;3.55;1.20;;;18.20;84.00;;;;;;10541060;28;20077;-59
2022/05/21 19:04:58;;;;;;;3.83;1.00;;;18.20;84.10;;;;;;10540817;28;20119;-56
2022/05/21 19:09:59;;;;;;;2.00;1.08;;;18.20;84.10;;;;;;10540804;28;20043;-59
2022/05/21 19:15:00;;;;;;;4.05;1.05;;;18.20;84.40;;;;;;10539968;28;20066;-56
2022/05/21 19:20:00;;;;;;;6.22;1.20;;;18.20;84.70;;;;;;10539972;28;20040;-60
2022/05/21 19:25:01;;;;;;;3.50;1.00;;;18.10;84.70;;;;;;10540057;28;20043;-55
2022/05/21 19:30:02;;;;;;;3.25;1.08;;;18.10;84.80;;;;;;10539878;28;20146;-55
2022/05/21 19:35:03;;;;;;;3.45;1.67;;;18.10;84.80;;;;;;10539551;28;20048;-55
2022/05/21 19:45:23;;;;;;;4.22;1.35;;;18.00;84.80;;;;;;10539299;28;20051;-55
2022/05/21 19:50:24;;;;;;;2.67;1.30;;;17.90;84.80;;;;;;10539293;28;20028;-52
2022/05/21 19:55:25;;;;;;;4.03;0.98;;;17.90;84.90;;;;;;10538688;28;20051;-64
2022/05/21 20:00:26;;;;;;;4.03;1.20;;;17.90;84.90;;;;;;10538545;28;20032;-60
2022/05/21 20:05:29;;;;;;;2.90;1.40;;;17.90;84.90;;;;;;10538368;28;20481;-56
2022/05/21 20:10:30;;;;;;;2.58;1.10;;;17.80;85.00;;;;;;10538037;28;20125;-60
2022/05/21 20:15:34;;;;;;;7.47;1.90;;;17.80;85.00;;;;;;10537685;28;20071;-57
2022/05/21 20:20:37;;;;;;;5.00;1.08;;;17.80;85.00;;;;;;10537880;28;20039;-56
2022/05/21 20:25:41;;;;;;;5.53;1.20;;;17.80;85.10;;;;;;10537563;28;20032;-62
2022/05/21 20:30:43;;;;;;;8.02;1.25;;;17.70;85.10;;;;;;10537172;28;20044;-55
2022/05/21 20:35:44;;;;;;;3.05;1.30;;;17.70;85.20;;;;;;10537101;28;20059;-55
2022/05/21 20:40:44;;;;;;;3.35;1.10;;;17.70;85.20;;;;;;10537023;28;20044;-63
2022/05/21 20:45:45;;;;;;;2.35;1.08;;;17.60;85.20;;;;;;10536937;28;20036;-55
2022/05/21 20:50:46;;;;;;;2.80;1.40;;;17.60;85.30;;;;;;10535841;28;20466;-54
2022/05/21 20:55:47;;;;;;;4.32;1.27;;;17.60;85.30;;;;;;10536336;28;20098;-64
2022/05/21 21:00:54;;;;;;;2.35;1.02;;;17.50;85.30;;;;;;10518717;28;20036;-55
2022/05/21 21:05:55;;;;;;;4.55;1.30;;;17.50;85.30;;;;;;10536576;28;20060;-54
2022/05/21 21:10:56;;;;;;;4.75;1.35;;;17.50;85.40;;;;;;10536181;28;20032;-55
2022/05/21 21:15:56;;;;;;;5.53;1.40;;;17.40;85.40;;;;;;10535687;28;20549;-56
2022/05/21 21:20:57;;;;;;;4.68;1.90;;;17.40;85.50;;;;;;10535943;28;20642;-63
2022/05/21 21:25:58;;;;;;;2.30;1.20;;;17.40;85.50;;;;;;10535591;28;20035;-56
2022/05/21 21:30:59;;;;;;;2.85;1.30;;;17.30;85.50;;;;;;10535554;28;20058;-58
2022/05/21 21:36:00;;;;;;;2.33;1.50;;;17.30;85.50;;;;;;10535274;28;20131;-64
2022/05/21 21:41:01;;;;;;;1.90;1.50;;;17.30;85.50;;;;;;10535353;28;20032;-56
2022/05/21 21:46:01;;;;;;;3.60;1.58;;;17.30;85.60;;;;;;10535360;28;20040;-56
2022/05/21 21:51:03;;;;;;;3.00;1.45;;;17.20;85.50;;;;;;10535206;28;20032;-55
2022/05/21 21:56:04;;;;;;;3.45;1.70;;;17.20;85.50;;;;;;10535177;28;20166;-55
2022/05/21 22:01:24;;;;;;;4.05;1.42;;;17.20;85.60;;;;;;10538145;28;20186;-55
2022/05/21 22:06:25;;;;;;;3.38;1.40;;;17.10;85.40;;;;;;10543343;28;20354;-62
2022/05/21 22:11:27;;;;;;;2.97;1.40;;;17.10;85.60;;;;;;10543127;28;20067;-68
2022/05/21 22:16:29;;;;;;;5.68;1.95;;;17.10;85.60;;;;;;10542637;28;20051;-72
2022/05/21 22:21:29;;;;;;;4.45;1.48;;;17.00;85.60;;;;;;10542632;28;20146;-70
2022/05/21 22:26:30;;;;;;;2.97;1.20;;;17.00;85.60;;;;;;10541460;28;20210;-69
2022/05/21 22:31:31;;;;;;;4.43;1.60;;;17.00;85.70;;;;;;10542440;28;20133;-74
2022/05/21 22:36:35;;;;;;;4.40;1.50;;;16.90;85.60;;;;;;10541903;28;20135;-57
2022/05/21 22:41:36;;;;;;;2.67;1.40;;;16.90;85.60;;;;;;10541947;28;20024;-72
2022/05/21 22:46:39;;;;;;;3.03;1.15;;;16.90;85.70;;;;;;10541922;28;20487;-57
2022/05/21 22:51:40;;;;;;;1.77;1.20;;;16.90;85.70;;;;;;10541653;28;20446;-75
2022/05/21 22:56:41;;;;;;;1.77;1.33;;;16.80;85.60;;;;;;10541291;28;20093;-57
2022/05/21 23:01:41;;;;;;;3.28;1.50;;;16.80;85.60;;;;;;10541394;28;20036;-62
2022/05/21 23:06:43;;;;;;;3.95;1.83;;;16.80;85.70;;;;;;10541050;28;20061;-57
2022/05/21 23:11:43;;;;;;;2.75;1.23;;;16.80;85.60;;;;;;10540109;28;20056;-67
2022/05/21 23:27:23;;;;;;;2.25;1.40;;;16.70;85.60;;;;;;10540011;28;20127;-59
2022/05/21 23:32:24;;;;;;;2.58;1.30;;;16.70;85.60;;;;;;10540432;28;20040;-56
2022/05/21 23:37:25;;;;;;;3.70;1.40;;;16.60;85.60;;;;;;10539721;28;20044;-72
2022/05/21 23:42:26;;;;;;;5.05;1.58;;;16.60;85.60;;;;;;10539478;28;20115;-66
2022/05/21 23:47:27;;;;;;;3.65;1.60;;;16.60;85.60;;;;;;10539177;28;20044;-66
2022/05/21 23:52:27;;;;;;;5.72;1.50;;;16.50;85.60;;;;;;10538875;28;20101;-60
2022/05/21 23:57:28;;;;;;;2.90;1.38;;;16.50;85.60;;;;;;10539151;28;20544;-65
